createdAt,value
2023-05-15T00:02:09.050Z,14.11
2023-05-15T00:04:35.882Z,14.00
2023-05-15T00:07:02.422Z,13.98
2023-05-15T00:09:28.965Z,14.04
2023-05-15T00:11:55.651Z,13.97
2023-05-15T00:14:22.180Z,14.22
2023-05-15T00:16:48.806Z,13.87
2023-05-15T00:19:16.002Z,13.81
2023-05-15T00:21:42.738Z,14.28
2023-05-15T00:24:09.242Z,14.04
2023-05-15T00:26:35.800Z,14.11
2023-05-15T00:29:02.540Z,14.61
2023-05-15T00:31:29.109Z,13.99
2023-05-15T00:33:56.009Z,13.81
2023-05-15T00:36:24.280Z,13.76
2023-05-15T00:38:50.819Z,13.81
2023-05-15T00:41:18.339Z,13.82
2023-05-15T00:43:45.121Z,14.10
2023-05-15T00:46:15.270Z,14.32
2023-05-15T00:48:43.275Z,14.42
2023-05-15T00:51:10.054Z,14.00
2023-05-15T00:53:38.565Z,14.12
2023-05-15T00:56:06.489Z,14.13
2023-05-15T00:58:33.915Z,14.39
2023-05-15T01:03:43.885Z,13.71
2023-05-15T01:06:11.176Z,13.68
2023-05-15T01:08:40.221Z,13.81
2023-05-15T01:11:08.939Z,13.91
2023-05-15T01:13:35.539Z,13.63
2023-05-15T01:16:02.225Z,13.87
2023-05-15T01:18:32.598Z,13.57
2023-05-15T01:21:03.029Z,13.51
2023-05-15T01:23:32.276Z,13.65
2023-05-15T01:26:20.050Z,13.69
2023-05-15T01:28:56.372Z,13.95
2023-05-15T01:31:26.731Z,13.56
2023-05-15T01:33:59.163Z,13.73
2023-05-15T01:36:33.348Z,13.91
2023-05-15T01:39:03.521Z,14.03
2023-05-15T01:41:41.341Z,14.10
2023-05-15T01:44:11.629Z,13.48
2023-05-15T01:46:45.940Z,13.53
2023-05-15T01:49:16.019Z,13.72
2023-05-15T01:51:45.663Z,13.69
2023-05-15T01:54:15.012Z,13.86
2023-05-15T01:56:45.098Z,13.53
2023-05-15T01:59:16.566Z,13.50
2023-05-15T02:01:45.135Z,13.66
2023-05-15T02:04:12.617Z,13.63
2023-05-15T02:06:40.656Z,13.23
2023-05-15T02:09:07.722Z,13.46
2023-05-15T02:11:34.812Z,13.48
2023-05-15T02:14:01.912Z,14.22
2023-05-15T02:16:28.471Z,13.39
2023-05-15T02:18:55.291Z,13.85
2023-05-15T02:21:21.912Z,13.50
2023-05-15T02:23:48.467Z,13.31
2023-05-15T02:26:36.389Z,13.10
2023-05-15T02:29:31.028Z,13.79
2023-05-15T02:32:21.038Z,13.55
2023-05-15T02:35:06.658Z,13.46
2023-05-15T02:37:38.348Z,13.89
2023-05-15T02:40:07.123Z,14.11
2023-05-15T02:42:35.865Z,13.83
2023-05-15T02:45:03.440Z,13.16
2023-05-15T02:47:31.066Z,13.11
2023-05-15T02:49:57.927Z,13.16
2023-05-15T02:52:24.915Z,13.55
2023-05-15T02:54:51.535Z,13.10
2023-05-15T02:57:18.205Z,13.50
2023-05-15T02:59:45.442Z,13.34
2023-05-15T03:02:11.942Z,13.15
2023-05-15T03:04:38.872Z,13.42
2023-05-15T03:07:05.623Z,13.89
2023-05-15T03:09:32.120Z,13.39
2023-05-15T03:11:58.690Z,13.11
2023-05-15T03:14:25.296Z,13.13
2023-05-15T03:16:51.825Z,13.40
2023-05-15T03:19:18.958Z,13.67
2023-05-15T03:21:45.678Z,13.13
2023-05-15T03:24:12.223Z,13.43
2023-05-15T03:26:40.482Z,14.19
2023-05-15T03:29:07.028Z,13.63
2023-05-15T03:31:33.664Z,13.63
2023-05-15T03:34:00.292Z,13.04
2023-05-15T03:36:26.891Z,13.35
2023-05-15T03:38:53.422Z,13.31
2023-05-15T03:41:21.497Z,13.47
2023-05-15T03:43:48.174Z,13.18
2023-05-15T03:46:15.706Z,13.10
2023-05-15T03:48:42.344Z,13.13
2023-05-15T03:51:08.961Z,12.98
2023-05-15T03:53:35.501Z,12.99
2023-05-15T03:56:03.470Z,13.13
2023-05-15T03:58:32.112Z,13.17
2023-05-15T04:00:58.797Z,12.84
2023-05-15T04:03:25.381Z,12.82
2023-05-15T04:05:52.548Z,13.21
2023-05-15T04:08:19.149Z,13.27
2023-05-15T04:10:45.801Z,12.83
2023-05-15T04:13:12.493Z,12.81
2023-05-15T04:15:40.551Z,13.17
2023-05-15T04:18:07.129Z,13.45
2023-05-15T04:20:34.045Z,13.23
2023-05-15T04:23:00.677Z,14.06
2023-05-15T04:25:28.029Z,13.80
2023-05-15T04:27:56.146Z,13.01
2023-05-15T04:30:22.844Z,13.01
2023-05-15T04:32:50.209Z,14.01
2023-05-15T04:35:16.997Z,14.33
2023-05-15T04:37:45.808Z,14.46
2023-05-15T04:40:14.924Z,13.78
2023-05-15T04:42:41.641Z,13.68
2023-05-15T04:45:09.381Z,13.56
2023-05-15T04:47:36.162Z,13.41
2023-05-15T04:50:03.096Z,13.76
2023-05-15T04:52:29.707Z,13.13
2023-05-15T04:54:56.330Z,13.13
2023-05-15T04:57:23.105Z,13.28
2023-05-15T04:59:50.049Z,13.28
2023-05-15T05:02:19.997Z,13.51
2023-05-15T05:04:46.575Z,13.90
2023-05-15T05:07:13.348Z,14.06
2023-05-15T05:09:40.603Z,14.17
2023-05-15T05:12:08.240Z,14.07
2023-05-15T05:14:35.291Z,13.95
2023-05-15T05:17:01.972Z,13.75
2023-05-15T05:19:28.617Z,13.89
2023-05-15T05:21:55.728Z,14.61
2023-05-15T05:24:22.379Z,14.09
2023-05-15T05:26:48.896Z,14.43
2023-05-15T05:29:15.576Z,13.60
2023-05-15T05:31:42.137Z,14.78
2023-05-15T05:34:09.327Z,14.02
2023-05-15T05:36:37.094Z,14.26
2023-05-15T05:39:04.773Z,14.75
2023-05-15T05:41:31.395Z,13.99
2023-05-15T05:43:57.952Z,14.20
2023-05-15T05:46:24.511Z,14.83
2023-05-15T05:48:51.088Z,13.68
2023-05-15T05:51:25.585Z,13.63
2023-05-15T05:53:52.166Z,13.86
2023-05-15T05:56:18.855Z,14.72
2023-05-15T05:58:45.584Z,14.69
2023-05-15T06:01:12.158Z,14.17
2023-05-15T06:03:39.231Z,14.13
2023-05-15T06:06:06.093Z,15.12
2023-05-15T06:08:32.723Z,13.99
2023-05-15T06:10:59.378Z,14.93
2023-05-15T06:13:26.069Z,14.22
2023-05-15T06:15:52.640Z,14.11
2023-05-15T06:18:19.158Z,14.39
2023-05-15T06:20:46.860Z,15.09
2023-05-15T06:23:13.401Z,14.93
2023-05-15T06:25:40.243Z,15.37
2023-05-15T06:28:06.856Z,15.47
2023-05-15T06:30:33.409Z,15.20
2023-05-15T06:33:00.372Z,14.50
2023-05-15T06:35:27.403Z,14.33
2023-05-15T06:37:54.344Z,14.44
2023-05-15T06:40:21.659Z,14.69
2023-05-15T06:42:48.364Z,14.84
2023-05-15T06:45:15.108Z,15.07
2023-05-15T06:47:41.677Z,15.21
2023-05-15T06:50:08.654Z,15.60
2023-05-15T06:52:35.194Z,15.58
2023-05-15T06:55:01.692Z,15.82
2023-05-15T06:57:28.279Z,15.65
2023-05-15T06:59:54.864Z,16.39
2023-05-15T07:02:21.393Z,15.04
2023-05-15T07:04:47.941Z,14.89
2023-05-15T07:07:14.578Z,14.81
2023-05-15T07:09:41.396Z,14.86
2023-05-15T07:12:08.359Z,14.94
2023-05-15T07:14:36.718Z,15.08
2023-05-15T07:17:03.260Z,15.17
2023-05-15T07:19:29.893Z,15.14
2023-05-15T07:21:56.597Z,16.30
2023-05-15T07:24:23.136Z,16.04
2023-05-15T07:26:58.128Z,16.74
2023-05-15T07:29:25.741Z,15.61
2023-05-15T07:31:52.344Z,15.44
2023-05-15T07:34:18.957Z,15.57
2023-05-15T07:36:45.586Z,15.96
2023-05-15T07:39:12.498Z,15.94
2023-05-15T07:41:39.071Z,16.49
2023-05-15T07:44:06.140Z,15.81
2023-05-15T07:46:33.866Z,16.19
2023-05-15T07:49:00.593Z,15.56
2023-05-15T07:51:27.255Z,16.08
2023-05-15T07:53:53.776Z,15.81
2023-05-15T07:56:20.302Z,16.64
2023-05-15T07:58:47.030Z,16.06
2023-05-15T08:01:13.570Z,16.20
2023-05-15T08:03:40.222Z,15.69
2023-05-15T08:06:08.263Z,16.08
2023-05-15T08:08:34.774Z,15.96
2023-05-15T08:11:01.432Z,16.63
2023-05-15T08:13:29.239Z,16.09
2023-05-15T08:15:56.034Z,16.60
2023-05-15T08:18:22.643Z,16.01
2023-05-15T08:20:49.750Z,16.31
2023-05-15T08:23:16.278Z,15.80
2023-05-15T08:25:42.825Z,16.06
2023-05-15T08:28:10.783Z,16.30
2023-05-15T08:30:37.623Z,16.74
2023-05-15T08:33:04.203Z,16.94
2023-05-15T08:35:30.890Z,17.32
2023-05-15T08:37:58.352Z,16.47
2023-05-15T08:43:03.117Z,16.64
2023-05-15T08:45:29.743Z,17.48
2023-05-15T08:47:59.494Z,16.66
2023-05-15T08:50:26.463Z,16.66
2023-05-15T08:52:58.214Z,16.12
2023-05-15T08:55:25.448Z,16.94
2023-05-15T08:57:54.490Z,16.81
2023-05-15T09:00:22.405Z,17.28
2023-05-15T09:02:49.314Z,17.14
2023-05-15T09:05:15.901Z,17.23
2023-05-15T09:07:44.974Z,17.75
2023-05-15T09:10:13.068Z,17.97
2023-05-15T09:12:44.786Z,17.35
2023-05-15T09:15:17.781Z,17.39
2023-05-15T09:17:45.917Z,17.29
2023-05-15T09:20:32.969Z,17.91
2023-05-15T09:23:01.235Z,18.35
2023-05-15T09:25:53.040Z,17.33
2023-05-15T09:28:27.983Z,16.93
2023-05-15T09:31:02.199Z,17.14
2023-05-15T09:33:33.887Z,17.35
2023-05-15T09:36:01.907Z,17.33
2023-05-15T09:38:28.690Z,17.46
2023-05-15T09:41:03.345Z,17.77
2023-05-15T09:43:33.342Z,18.14
2023-05-15T09:45:59.920Z,18.17
2023-05-15T09:48:26.742Z,18.00
2023-05-15T09:50:53.952Z,17.95
2023-05-15T09:53:22.482Z,18.27
2023-05-15T09:55:49.444Z,18.15
2023-05-15T09:58:18.098Z,17.97
2023-05-15T10:00:47.844Z,17.61
2023-05-15T10:03:17.447Z,17.87
2023-05-15T10:05:44.454Z,18.24
2023-05-15T10:08:11.687Z,18.33
2023-05-15T10:10:38.651Z,18.60
2023-05-15T10:13:08.268Z,18.51
2023-05-15T10:15:35.579Z,18.08
2023-05-15T10:18:04.768Z,17.83
2023-05-15T10:20:35.518Z,17.98
2023-05-15T10:23:03.930Z,17.99
2023-05-15T10:26:03.340Z,18.18
2023-05-15T10:28:31.495Z,18.56
2023-05-15T10:31:01.395Z,18.66
2023-05-15T10:33:29.938Z,18.58
2023-05-15T10:35:58.624Z,18.79
2023-05-15T10:38:26.152Z,18.19
2023-05-15T10:40:59.820Z,18.28
2023-05-15T10:43:33.748Z,17.76
2023-05-15T10:46:01.108Z,18.04
2023-05-15T10:48:28.205Z,17.78
2023-05-15T10:50:55.115Z,18.51
2023-05-15T10:53:21.789Z,18.24
2023-05-15T10:55:49.791Z,18.69
2023-05-15T10:58:16.478Z,18.80
2023-05-15T11:00:44.858Z,19.19
2023-05-15T11:03:15.507Z,19.19
2023-05-15T11:06:07.776Z,19.18
2023-05-15T11:08:35.968Z,19.13
2023-05-15T11:11:02.553Z,19.13
2023-05-15T11:14:10.510Z,19.33
2023-05-15T11:16:55.552Z,18.98
2023-05-15T11:19:22.979Z,19.25
2023-05-15T11:22:08.142Z,19.17
2023-05-15T11:24:58.168Z,19.19
2023-05-15T11:27:26.172Z,18.59
2023-05-15T11:30:11.516Z,18.61
2023-05-15T11:32:46.889Z,18.74
2023-05-15T11:35:18.996Z,19.06
2023-05-15T11:37:54.259Z,18.96
2023-05-15T11:40:24.123Z,18.96
2023-05-15T11:43:07.367Z,19.55
2023-05-15T11:45:35.771Z,19.32
2023-05-15T11:48:05.928Z,20.12
2023-05-15T11:50:33.938Z,20.33
2023-05-15T11:53:05.537Z,20.04
2023-05-15T11:55:33.852Z,19.47
2023-05-15T11:58:01.232Z,19.77
2023-05-15T12:00:28.086Z,20.13
2023-05-15T12:02:54.758Z,20.08
2023-05-15T12:05:21.625Z,20.51
2023-05-15T12:07:48.323Z,20.43
2023-05-15T12:10:15.078Z,19.73
2023-05-15T12:12:48.646Z,19.91
2023-05-15T12:15:17.546Z,19.63
2023-05-15T12:17:45.604Z,19.94
2023-05-15T12:20:16.704Z,19.14
2023-05-15T12:22:43.454Z,19.27
2023-05-15T12:25:11.942Z,19.27
2023-05-15T12:27:39.809Z,19.47
2023-05-15T12:30:07.495Z,19.50
2023-05-15T12:32:36.034Z,19.67
2023-05-15T12:35:03.993Z,19.45
2023-05-15T12:37:35.902Z,19.34
2023-05-15T12:40:10.290Z,19.69
2023-05-15T12:42:44.921Z,19.74
2023-05-15T12:45:19.575Z,19.82
2023-05-15T12:47:48.978Z,19.85
2023-05-15T12:50:16.384Z,19.29
2023-05-15T12:53:07.155Z,19.18
2023-05-15T12:55:35.837Z,19.32
2023-05-15T12:58:09.013Z,19.32
2023-05-15T13:00:36.750Z,19.57
